LELC/MJV METAR and TAF weather

Enter ICAO airport designator
Station Type Date Time Source
LELC METAR 2021/02/25 02:00 UTC NOAA

LELC 250200Z AUTO 35006KT 9000 SCT013 BKN031 13/11 Q1031


Station Type Date Time Source
LELC Decoded METAR 2021/02/25 02:00 UTC NOAA

Murcia / San Javier, Spain (LELC) 37-47N 000-48W 3M
Feb 24, 2021 - 09:00 PM EST / 2021.02.25 0200 UTC
Wind: from the N (350 degrees) at 7 MPH (6 KT):0
Visibility: 5 mile(s):0
Sky conditions: mostly cloudy
Temperature: 55 F (13 C)
Dew Point: 51 F (11 C)
Relative Humidity: 87%
Pressure (altimeter): 30.45 in. Hg (1031 hPa)
ob: LELC 250200Z AUTO 35006KT 9000 SCT013 BKN031 13/11 Q1031
cycle: 2

Station Type Date Time Source
LELC TAF 2021/02/24 18:27 UTC NOAA

TAF LELC 241700Z 2418/2518 05009KT 9999 SCT015 SCT030 TX18/2514Z TN11/2503Z PROB40
TEMPO 2418/2424 BKN012

Example: see airport list